Time;durP1;ratioP1;P1;durP2;ratioP2;P2;SDS_P1;SDS_P2;PMS_P1;PMS_P2;Temp;Humidity;BMP_temperature;BMP_pressure;BME280_temperature;BME280_humidity;BME280_pressure;Samples;Min_cycle;Max_cycle;Signal;HPM_P1;HPM_P2
2022/08/30 00:02:46;;;;;;;3.67;3.33;;;25.40;99.90;;;;;;1885062;75;21170;-76
2022/08/30 00:05:39;;;;;;;4.40;4.00;;;25.30;99.90;;;;;;1893196;75;21095;-75
2022/08/30 00:08:31;;;;;;;4.67;4.20;;;25.20;99.90;;;;;;1877981;75;21072;-75
2022/08/30 00:11:25;;;;;;;4.22;3.83;;;25.20;99.90;;;;;;1897874;75;21062;-75
2022/08/30 00:14:32;;;;;;;4.20;3.80;;;25.20;99.90;;;;;;1882573;75;21074;-76
2022/08/30 00:17:24;;;;;;;5.90;4.00;;;25.20;99.90;;;;;;1875572;74;21117;-76
2022/08/30 00:20:21;;;;;;;4.33;3.92;;;25.10;99.90;;;;;;1897005;75;21583;-76
2022/08/30 00:23:25;;;;;;;5.05;4.10;;;25.10;99.90;;;;;;1851724;77;21158;-76
2022/08/30 00:28:59;;;;;;;4.33;3.92;;;25.00;99.90;;;;;;1962547;72;22187;-77
2022/08/30 00:34:31;;;;;;;4.95;4.28;;;25.00;99.90;;;;;;1938882;72;22715;-77
2022/08/30 00:37:22;;;;;;;5.17;4.10;;;24.90;99.90;;;;;;1891972;75;21162;-76
2022/08/30 00:40:15;;;;;;;5.25;3.98;;;24.90;99.90;;;;;;1904328;75;21058;-76
2022/08/30 00:43:09;;;;;;;4.15;3.60;;;24.90;99.90;;;;;;1910409;75;21102;-76
2022/08/30 00:46:03;;;;;;;5.35;4.30;;;24.90;99.90;;;;;;1885746;75;21066;-77
2022/08/30 00:48:56;;;;;;;5.22;3.72;;;24.90;99.90;;;;;;1906541;75;21155;-77
2022/08/30 00:51:48;;;;;;;4.30;3.55;;;24.90;99.90;;;;;;1887315;75;21049;-77
2022/08/30 00:54:42;;;;;;;4.42;3.67;;;24.90;99.90;;;;;;1887002;75;21066;-76
2022/08/30 00:57:34;;;;;;;4.83;4.00;;;24.80;99.90;;;;;;1899989;75;21051;-77
2022/08/30 01:00:26;;;;;;;4.42;3.60;;;24.80;99.90;;;;;;1891111;75;21564;-75
2022/08/30 01:03:17;;;;;;;4.37;3.98;;;24.80;99.90;;;;;;1900146;75;21051;-75
2022/08/30 01:06:09;;;;;;;5.10;3.83;;;24.80;99.90;;;;;;1899773;75;21055;-76
2022/08/30 01:09:02;;;;;;;4.55;4.15;;;24.70;99.90;;;;;;1884897;75;21144;-76
2022/08/30 01:14:33;;;;;;;5.08;3.65;;;24.30;99.90;;;;;;1946238;72;22669;-75
2022/08/30 01:17:26;;;;;;;5.15;4.08;;;24.30;99.90;;;;;;1940008;73;21171;-76
2022/08/30 01:20:22;;;;;;;4.72;3.12;;;24.30;99.90;;;;;;1936694;73;21103;-78
2022/08/30 01:23:17;;;;;;;4.53;3.33;;;24.20;99.90;;;;;;1924398;73;21058;-78
2022/08/30 01:26:09;;;;;;;4.58;3.55;;;24.10;99.90;;;;;;1928631;73;21167;-79
2022/08/30 01:29:02;;;;;;;7.87;3.60;;;24.00;99.90;;;;;;1941726;73;21612;-78
2022/08/30 01:31:53;;;;;;;3.85;3.52;;;24.00;99.90;;;;;;1930659;73;21544;-78
2022/08/30 01:37:27;;;;;;;4.78;3.72;;;24.00;99.90;;;;;;1953392;72;22332;-77
2022/08/30 01:40:18;;;;;;;4.53;3.37;;;24.00;99.90;;;;;;1932517;73;21113;-77
2022/08/30 01:43:11;;;;;;;4.08;3.30;;;24.00;99.90;;;;;;1917670;75;21091;-77
2022/08/30 01:46:02;;;;;;;4.37;3.77;;;24.00;99.90;;;;;;1917567;75;21171;-76
2022/08/30 01:48:55;;;;;;;4.65;3.67;;;24.00;99.90;;;;;;1917714;75;21089;-76
2022/08/30 01:51:46;;;;;;;4.47;3.72;;;24.00;99.90;;;;;;1917504;75;21142;-76
2022/08/30 01:57:19;;;;;;;4.53;4.05;;;23.90;99.90;;;;;;1935941;72;22176;-76
2022/08/30 02:00:13;;;;;;;5.03;4.22;;;23.90;99.90;;;;;;1903119;75;21078;-78
2022/08/30 02:03:04;;;;;;;4.72;3.85;;;23.80;99.90;;;;;;1906405;75;21087;-79
2022/08/30 02:05:55;;;;;;;4.92;3.83;;;23.60;99.90;;;;;;1925146;73;21050;-78
2022/08/30 02:08:49;;;;;;;4.17;3.62;;;23.50;99.90;;;;;;1899838;73;21112;-76
2022/08/30 02:11:41;;;;;;;7.25;3.72;;;23.30;99.90;;;;;;1906894;73;21059;-77
2022/08/30 02:14:32;;;;;;;4.40;3.70;;;23.40;99.90;;;;;;1907808;75;21150;-75
2022/08/30 02:20:07;;;;;;;4.65;3.55;;;23.20;99.90;;;;;;1932897;72;22099;-76
2022/08/30 02:22:58;;;;;;;8.75;4.30;;;23.20;99.90;;;;;;1910170;75;21055;-75
2022/08/30 02:25:51;;;;;;;6.53;4.17;;;23.20;99.90;;;;;;1904392;75;21106;-76
2022/08/30 02:28:43;;;;;;;4.92;3.92;;;23.30;99.90;;;;;;1884739;75;21066;-76
2022/08/30 02:34:18;;;;;;;7.30;5.42;;;23.20;99.90;;;;;;1933541;72;22259;-76
2022/08/30 02:37:09;;;;;;;7.45;4.60;;;23.30;99.90;;;;;;1898972;75;21614;-75
2022/08/30 02:40:09;;;;;;;3.83;3.45;;;23.30;99.90;;;;;;1903395;75;21086;-75
2022/08/30 02:43:01;;;;;;;7.15;4.67;;;23.40;99.90;;;;;;1888134;75;21063;-80
2022/08/30 02:45:53;;;;;;;6.75;4.40;;;23.30;99.90;;;;;;1901514;75;21524;-75
2022/08/30 02:48:44;;;;;;;5.50;4.50;;;23.40;99.90;;;;;;1911994;75;21158;-77
2022/08/30 02:54:27;;;;;;;6.17;4.75;;;23.50;99.90;;;;;;1953326;72;22559;-77
2022/08/30 02:59:58;;;;;;;4.67;4.08;;;23.60;99.90;;;;;;1949331;72;22160;-76
2022/08/30 03:02:49;;;;;;;4.53;3.75;;;23.60;99.90;;;;;;1905319;75;21107;-75
2022/08/30 03:08:19;;;;;;;4.67;3.77;;;23.60;99.90;;;;;;1932857;72;22146;-77
2022/08/30 03:11:12;;;;;;;4.62;4.12;;;23.60;99.90;;;;;;1944857;73;21086;-76
2022/08/30 03:14:03;;;;;;;4.42;4.00;;;23.60;99.90;;;;;;1896653;74;21100;-77
2022/08/30 03:16:55;;;;;;;7.15;4.30;;;23.60;99.90;;;;;;1909535;73;21054;-77
2022/08/30 03:22:24;;;;;;;6.05;3.92;;;23.60;99.90;;;;;;1938052;72;22231;-74
2022/08/30 03:25:20;;;;;;;10.35;5.50;;;23.60;99.90;;;;;;1899850;75;21491;-77
2022/08/30 03:28:12;;;;;;;11.12;8.33;;;23.60;99.90;;;;;;1896923;75;21136;-77
2022/08/30 03:31:10;;;;;;;12.70;9.85;;;23.60;99.90;;;;;;1910715;75;21084;-76
2022/08/30 03:34:10;;;;;;;10.13;6.62;;;23.60;99.90;;;;;;1904434;75;21527;-77
2022/08/30 03:37:02;;;;;;;5.20;4.58;;;23.60;99.90;;;;;;1909695;75;21125;-77
2022/08/30 03:39:53;;;;;;;4.50;4.05;;;23.60;99.90;;;;;;1888151;75;21105;-77
2022/08/30 03:42:45;;;;;;;6.28;4.45;;;23.50;99.90;;;;;;1883640;75;21580;-77
2022/08/30 03:48:16;;;;;;;5.60;4.20;;;23.40;99.90;;;;;;1951371;72;22168;-78
2022/08/30 03:53:56;;;;;;;5.85;4.58;;;23.40;99.90;;;;;;1931650;72;22294;-75
2022/08/30 03:57:02;;;;;;;6.55;4.10;;;23.40;99.90;;;;;;1894680;73;21067;-75
2022/08/30 04:02:33;;;;;;;4.90;4.40;;;23.40;99.90;;;;;;1935513;72;22209;-78
2022/08/30 04:05:32;;;;;;;4.60;3.65;;;23.40;99.90;;;;;;1922694;74;21106;-82
2022/08/30 04:08:24;;;;;;;5.17;4.42;;;23.40;99.90;;;;;;1927884;74;21094;-85
2022/08/30 04:11:16;;;;;;;4.58;4.05;;;23.40;99.90;;;;;;1909212;74;21192;-85
2022/08/30 04:14:08;;;;;;;5.40;4.90;;;23.40;99.90;;;;;;1913403;74;21052;-86
2022/08/30 04:16:59;;;;;;;5.80;4.30;;;23.30;99.90;;;;;;1910552;74;21152;-85
2022/08/30 04:22:30;;;;;;;4.60;4.10;;;23.20;99.90;;;;;;1940584;72;22684;-77
2022/08/30 04:25:23;;;;;;;4.45;4.00;;;23.20;99.90;;;;;;1894259;75;21059;-76
2022/08/30 04:28:14;;;;;;;5.40;4.22;;;23.20;99.90;;;;;;1873147;75;21144;-76
2022/08/30 04:31:10;;;;;;;4.55;3.95;;;23.20;99.90;;;;;;1902605;75;21056;-76
2022/08/30 04:34:02;;;;;;;4.37;3.98;;;23.20;99.90;;;;;;1896817;75;21112;-76
2022/08/30 04:36:53;;;;;;;5.12;4.10;;;23.20;99.90;;;;;;1875417;75;21044;-76
2022/08/30 04:39:45;;;;;;;4.67;3.95;;;23.10;99.90;;;;;;1883735;75;21055;-76
2022/08/30 04:42:36;;;;;;;4.87;4.37;;;23.20;99.90;;;;;;1892696;75;21053;-76
2022/08/30 04:48:06;;;;;;;3.92;3.60;;;23.20;99.90;;;;;;1930965;72;22191;-79
2022/08/30 04:50:58;;;;;;;5.53;4.25;;;23.10;99.90;;;;;;1898972;75;21130;-75
2022/08/30 04:53:49;;;;;;;4.47;4.08;;;23.00;99.90;;;;;;1885204;75;21114;-76
2022/08/30 04:56:40;;;;;;;5.17;4.15;;;23.00;99.90;;;;;;1889792;75;21636;-76
2022/08/30 05:08:30;;;;;;;5.42;4.00;;;23.00;99.90;;;;;;1917600;75;21055;-76
2022/08/30 05:11:24;;;;;;;4.83;4.33;;;23.10;99.90;;;;;;1925013;73;21051;-76
2022/08/30 05:14:15;;;;;;;5.97;3.98;;;23.20;99.90;;;;;;1917734;75;21094;-76
2022/08/30 05:17:07;;;;;;;7.50;4.00;;;23.20;99.90;;;;;;1933329;73;21035;-76
2022/08/30 05:20:00;;;;;;;5.20;4.30;;;23.30;99.90;;;;;;1917788;73;21064;-76
2022/08/30 05:22:52;;;;;;;5.83;4.20;;;23.30;99.90;;;;;;1920781;73;21058;-76
2022/08/30 05:25:45;;;;;;;8.60;3.90;;;23.30;99.90;;;;;;1928986;73;21168;-76
2022/08/30 05:28:45;;;;;;;4.62;3.95;;;23.30;99.90;;;;;;1923080;73;21094;-76
2022/08/30 05:31:43;;;;;;;7.45;4.12;;;23.30;99.90;;;;;;1886152;75;21133;-76
2022/08/30 05:37:15;;;;;;;5.85;3.98;;;23.20;99.90;;;;;;1950392;72;22099;-75
2022/08/30 05:40:08;;;;;;;6.90;4.03;;;23.20;99.90;;;;;;1890212;75;21138;-79
2022/08/30 05:45:40;;;;;;;5.28;4.05;;;23.10;99.90;;;;;;1941064;72;22192;-80
2022/08/30 05:48:39;;;;;;;6.65;3.80;;;23.20;99.90;;;;;;1904411;75;21087;-81
2022/08/30 05:51:33;;;;;;;6.53;4.20;;;23.10;99.90;;;;;;1909917;75;21047;-80
2022/08/30 05:54:36;;;;;;;6.65;4.47;;;23.10;99.90;;;;;;1911660;75;21490;-81
2022/08/30 05:57:27;;;;;;;7.33;4.30;;;23.20;99.90;;;;;;1889337;75;21120;-81
2022/08/30 06:00:20;;;;;;;4.75;4.10;;;23.20;99.90;;;;;;1880061;75;21098;-79
2022/08/30 06:03:12;;;;;;;4.87;4.20;;;23.30;99.90;;;;;;1875703;75;21138;-74
2022/08/30 06:06:07;;;;;;;5.10;4.33;;;23.40;99.90;;;;;;1878458;75;21135;-73
2022/08/30 06:08:59;;;;;;;9.88;4.35;;;23.40;99.90;;;;;;1883238;75;21130;-74
2022/08/30 06:11:50;;;;;;;5.45;4.28;;;23.50;99.90;;;;;;1880742;75;21061;-75
2022/08/30 06:14:43;;;;;;;5.60;4.03;;;23.60;99.90;;;;;;1876909;75;21125;-77
2022/08/30 06:17:34;;;;;;;5.15;4.03;;;23.60;99.90;;;;;;1883360;75;21082;-77
2022/08/30 06:20:27;;;;;;;5.33;4.00;;;23.70;99.90;;;;;;1887455;75;21141;-77
2022/08/30 06:23:22;;;;;;;5.30;4.12;;;23.80;99.90;;;;;;1876629;75;21194;-77
2022/08/30 06:26:14;;;;;;;8.30;4.25;;;23.70;99.90;;;;;;1868601;75;21063;-76
2022/08/30 06:29:06;;;;;;;4.30;3.90;;;23.80;99.90;;;;;;1887916;75;21063;-78
2022/08/30 06:31:58;;;;;;;5.10;4.60;;;23.60;99.90;;;;;;1882274;75;21234;-77
2022/08/30 06:34:50;;;;;;;8.45;4.30;;;23.60;99.90;;;;;;1870093;75;21065;-77
2022/08/30 06:37:42;;;;;;;5.40;4.90;;;23.80;99.90;;;;;;1880310;75;21188;-78
2022/08/30 06:40:42;;;;;;;4.35;3.80;;;23.70;99.90;;;;;;1883007;75;21166;-76
2022/08/30 06:46:23;;;;;;;9.58;4.87;;;23.80;99.90;;;;;;1940132;72;22630;-75
2022/08/30 06:49:23;;;;;;;8.73;5.28;;;23.80;99.90;;;;;;1934268;73;21479;-81
2022/08/30 06:52:14;;;;;;;6.22;4.10;;;23.80;99.90;;;;;;1920096;73;21114;-78
2022/08/30 06:55:07;;;;;;;9.10;4.10;;;23.70;99.90;;;;;;1934864;73;21068;-78
2022/08/30 06:58:02;;;;;;;5.17;4.35;;;23.70;99.90;;;;;;1932473;73;21083;-78
2022/08/30 07:00:53;;;;;;;8.05;4.42;;;23.70;99.90;;;;;;1917363;73;21102;-78
2022/08/30 07:03:49;;;;;;;7.50;4.25;;;23.80;99.90;;;;;;1929446;73;21152;-78
2022/08/30 07:09:21;;;;;;;13.78;4.53;;;23.70;99.90;;;;;;1947856;72;22252;-77
2022/08/30 07:12:14;;;;;;;6.62;4.15;;;23.70;99.90;;;;;;1914836;75;21092;-77
2022/08/30 07:21:10;;;;;;;7.22;4.37;;;23.50;99.90;;;;;;1899425;74;21133;-76
2022/08/30 07:24:02;;;;;;;8.58;4.00;;;23.50;99.90;;;;;;1912103;75;21102;-76
2022/08/30 07:26:56;;;;;;;5.03;4.30;;;23.50;99.90;;;;;;1903109;75;21136;-76
2022/08/30 07:32:37;;;;;;;8.85;4.22;;;23.70;99.90;;;;;;1944066;72;22227;-75
2022/08/30 07:35:28;;;;;;;7.72;4.53;;;23.70;99.90;;;;;;1910448;74;21616;-75
2022/08/30 07:38:33;;;;;;;6.78;4.42;;;23.70;99.90;;;;;;1897907;74;21121;-82
2022/08/30 07:41:34;;;;;;;4.87;4.30;;;23.70;99.90;;;;;;1869407;76;21101;-82
2022/08/30 07:44:25;;;;;;;4.22;3.83;;;23.80;99.90;;;;;;1855313;76;21164;-82
2022/08/30 07:47:21;;;;;;;7.78;4.85;;;23.90;99.90;;;;;;1898708;74;21102;-81
2022/08/30 07:50:14;;;;;;;5.00;4.00;;;24.00;99.90;;;;;;1908355;75;21252;-82
2022/08/30 07:53:06;;;;;;;8.83;4.30;;;24.10;99.90;;;;;;1909189;75;21118;-78
2022/08/30 07:58:42;;;;;;;4.80;3.98;;;24.10;99.90;;;;;;1944218;72;22130;-79
2022/08/30 08:01:34;;;;;;;5.90;3.80;;;24.10;99.90;;;;;;1893894;75;21180;-78
2022/08/30 08:04:27;;;;;;;5.22;3.90;;;23.90;99.90;;;;;;1882386;75;21125;-77
2022/08/30 08:07:20;;;;;;;5.70;4.00;;;24.00;99.90;;;;;;1877585;75;21173;-77
2022/08/30 08:12:51;;;;;;;7.35;4.00;;;24.20;99.90;;;;;;1941067;72;22208;-78
2022/08/30 08:15:52;;;;;;;4.65;3.95;;;24.30;99.90;;;;;;1898214;75;21113;-78
2022/08/30 08:18:44;;;;;;;6.67;4.25;;;24.50;99.90;;;;;;1896885;75;21039;-78
2022/08/30 08:24:23;;;;;;;7.62;4.37;;;24.70;99.90;;;;;;1950198;72;22194;-77
2022/08/30 08:27:14;;;;;;;5.33;3.95;;;24.90;99.90;;;;;;1951196;72;21138;-77
2022/08/30 08:32:46;;;;;;;80.85;72.27;;;25.10;99.90;;;;;;1927563;72;22187;-87
2022/08/30 08:35:38;;;;;;;7.08;4.70;;;25.30;99.90;;;;;;1893431;75;21120;-75
2022/08/30 08:41:32;;;;;;;4.83;3.90;;;25.60;99.90;;;;;;1941781;72;22238;-80
2022/08/30 08:44:45;;;;;;;6.58;4.08;;;25.50;99.90;;;;;;1893136;75;21171;-80
2022/08/30 08:50:18;;;;;;;7.92;3.85;;;25.60;99.90;;;;;;1946568;72;22172;-77
2022/08/30 08:55:59;;;;;;;5.08;4.00;;;25.70;99.90;;;;;;1941672;72;22192;-77
2022/08/30 08:58:53;;;;;;;8.73;4.40;;;25.80;99.90;;;;;;1898431;75;21100;-78
2022/08/30 09:01:44;;;;;;;8.55;4.90;;;25.90;99.90;;;;;;1892797;75;21056;-77
2022/08/30 09:07:17;;;;;;;5.60;4.25;;;26.10;99.90;;;;;;1932179;72;22121;-76
2022/08/30 09:10:09;;;;;;;10.70;4.92;;;26.20;99.90;;;;;;1940146;73;21051;-84
2022/08/30 09:13:07;;;;;;;530.45;472.02;;;26.20;99.90;;;;;;1929872;73;21075;-84
2022/08/30 09:16:00;;;;;;;16.10;14.13;;;26.30;99.90;;;;;;1929464;73;21055;-75
2022/08/30 09:21:44;;;;;;;11.75;4.40;;;26.40;99.90;;;;;;1948452;72;22162;-86
2022/08/30 09:24:54;;;;;;;9.70;4.47;;;26.50;99.90;;;;;;1921410;73;21170;-84
2022/08/30 09:30:30;;;;;;;8.00;4.33;;;26.70;99.90;;;;;;1953476;72;22288;-77
2022/08/30 09:36:17;;;;;;;6.80;4.62;;;26.90;99.90;;;;;;1950275;72;22172;-75
2022/08/30 09:41:56;;;;;;;9.43;4.75;;;27.20;99.90;;;;;;1946105;72;22134;-75
2022/08/30 09:44:48;;;;;;;5.92;4.47;;;27.30;99.90;;;;;;1909779;75;21120;-75
2022/08/30 09:47:42;;;;;;;8.55;4.42;;;27.30;99.90;;;;;;1902253;75;21578;-75
2022/08/30 09:50:36;;;;;;;6.87;4.08;;;27.40;99.90;;;;;;1896332;75;21077;-80
2022/08/30 09:53:33;;;;;;;9.00;4.45;;;27.60;99.90;;;;;;1906252;74;21066;-76
2022/08/30 09:56:42;;;;;;;232.77;205.60;;;27.70;99.90;;;;;;1904574;74;21086;-94
2022/08/30 10:02:42;;;;;;;7.50;4.35;;;27.80;99.90;;;;;;1947160;72;22208;-77
2022/08/30 10:05:51;;;;;;;7.35;4.33;;;27.60;99.90;;;;;;1885414;75;21151;-77
2022/08/30 10:08:51;;;;;;;9.93;4.33;;;27.50;99.90;;;;;;1903249;75;21090;-77
2022/08/30 10:11:46;;;;;;;5.85;4.72;;;27.50;99.90;;;;;;1891655;75;21101;-77
2022/08/30 10:15:02;;;;;;;5.62;4.33;;;27.70;99.90;;;;;;1884628;75;21580;-78
2022/08/30 10:20:40;;;;;;;6.47;4.05;;;27.90;99.90;;;;;;1939205;72;22244;-77
2022/08/30 10:23:55;;;;;;;5.75;4.60;;;27.90;99.90;;;;;;1879948;75;21111;-77
2022/08/30 10:26:49;;;;;;;5.00;3.65;;;28.00;99.90;;;;;;1872889;75;21087;-77
2022/08/30 10:29:45;;;;;;;6.78;3.75;;;28.10;99.90;;;;;;1899051;75;21149;-77
2022/08/30 10:35:18;;;;;;;7.67;4.20;;;28.10;99.90;;;;;;1956181;72;22240;-77
2022/08/30 10:41:13;;;;;;;4.53;4.08;;;28.10;99.90;;;;;;1945543;72;22239;-77
2022/08/30 10:44:14;;;;;;;6.83;3.95;;;28.10;99.90;;;;;;1930668;73;21058;-77
2022/08/30 10:47:13;;;;;;;4.40;4.00;;;28.30;99.90;;;;;;1926566;73;21155;-76
2022/08/30 10:50:12;;;;;;;7.50;3.92;;;28.40;99.90;;;;;;1937344;73;21156;-77
2022/08/30 10:53:06;;;;;;;6.58;5.20;;;28.50;99.90;;;;;;1920015;73;21152;-77
2022/08/30 10:58:43;;;;;;;6.47;3.62;;;28.80;99.90;;;;;;1930882;72;22921;-75
2022/08/30 11:01:43;;;;;;;5.75;3.35;;;29.00;99.90;;;;;;1896705;75;21102;-74
2022/08/30 11:08:00;;;;;;;4.83;2.90;;;29.50;99.90;;;;;;1936648;72;22244;-76
2022/08/30 11:10:56;;;;;;;3.77;3.35;;;29.60;99.90;;;;;;1908191;75;21503;-76
2022/08/30 11:16:41;;;;;;;5.58;1.87;;;29.70;99.90;;;;;;1945299;72;22134;-79
2022/08/30 11:19:39;;;;;;;2.75;1.80;;;29.90;99.90;;;;;;1905577;73;21167;-79
2022/08/30 11:22:35;;;;;;;4.65;1.62;;;30.10;99.90;;;;;;1919211;73;21043;-81
2022/08/30 11:25:51;;;;;;;3.30;1.75;;;29.80;99.90;;;;;;1921776;73;21183;-78
2022/08/30 11:29:07;;;;;;;2.10;1.57;;;29.70;99.90;;;;;;1899856;73;21066;-78
2022/08/30 11:32:02;;;;;;;2.65;1.87;;;29.80;99.90;;;;;;1911138;75;21715;-77
2022/08/30 11:34:59;;;;;;;3.47;1.70;;;29.80;99.90;;;;;;1901510;75;21075;-77
2022/08/30 11:40:54;;;;;;;3.42;1.90;;;29.40;99.90;;;;;;1952399;72;22217;-76
2022/08/30 11:46:40;;;;;;;2.00;1.60;;;29.30;99.90;;;;;;1951117;72;22213;-74
2022/08/30 11:49:51;;;;;;;2.20;1.50;;;29.40;99.90;;;;;;1914720;74;21054;-75
2022/08/30 11:52:49;;;;;;;3.87;1.82;;;29.50;99.90;;;;;;1911544;74;21152;-73
2022/08/30 11:56:03;;;;;;;3.08;2.00;;;29.70;99.90;;;;;;1920198;74;21059;-72
2022/08/30 11:58:59;;;;;;;4.90;2.70;;;30.00;99.90;;;;;;1926781;74;21165;-72
2022/08/30 12:01:50;;;;;;;3.67;2.60;;;30.30;99.90;;;;;;1916539;74;21529;-81
2022/08/30 12:04:47;;;;;;;2.80;2.52;;;30.30;99.90;;;;;;1930141;74;21185;-77
2022/08/30 12:08:00;;;;;;;3.10;2.80;;;30.40;99.90;;;;;;1906021;74;21414;-77
2022/08/30 12:10:54;;;;;;;42.08;36.58;;;30.30;99.90;;;;;;1930393;74;21076;-86
2022/08/30 12:13:54;;;;;;;10.18;5.37;;;30.10;99.90;;;;;;1919557;74;21079;-75
2022/08/30 12:20:09;;;;;;;4.75;2.90;;;30.10;99.90;;;;;;1904814;75;21103;-76
2022/08/30 12:26:09;;;;;;;5.42;3.92;;;29.90;99.90;;;;;;1933753;72;22224;-80
2022/08/30 12:29:11;;;;;;;6.65;3.12;;;29.70;99.90;;;;;;1893618;75;21090;-82
2022/08/30 12:37:56;;;;;;;5.72;1.75;;;29.20;99.90;;;;;;1949407;72;22759;-76
2022/08/30 12:40:57;;;;;;;10.15;1.57;;;28.40;99.90;;;;;;1889667;75;21094;-80
2022/08/30 12:43:56;;;;;;;4.30;0.80;;;26.00;99.90;;;;;;1895886;75;21110;-76
2022/08/30 12:46:50;;;;;;;5.03;1.12;;;24.70;99.90;;;;;;1888470;75;21095;-76
2022/08/30 12:49:45;;;;;;;2.55;1.20;;;24.40;99.90;;;;;;1894644;75;21169;-74
2022/08/30 12:55:21;;;;;;;4.10;1.67;;;24.50;99.90;;;;;;1942256;72;22247;-74
2022/08/30 12:58:14;;;;;;;3.10;1.30;;;24.90;99.90;;;;;;1920965;73;21224;-74
2022/08/30 13:01:27;;;;;;;3.90;1.27;;;24.90;99.90;;;;;;1932197;73;21201;-81
2022/08/30 13:04:30;;;;;;;3.75;1.65;;;25.10;99.90;;;;;;1932560;73;21517;-80
2022/08/30 13:10:17;;;;;;;2.40;1.17;;;25.00;99.90;;;;;;1939045;72;22150;-76
2022/08/30 13:13:21;;;;;;;1.67;1.30;;;24.90;99.90;;;;;;1897442;75;21559;-78
2022/08/30 13:16:26;;;;;;;3.08;1.72;;;24.90;99.90;;;;;;1909139;73;21095;-76
2022/08/30 13:22:24;;;;;;;1.70;1.50;;;25.20;99.90;;;;;;1945821;72;22592;-77
2022/08/30 13:25:17;;;;;;;5.15;2.12;;;25.30;99.90;;;;;;1930499;73;21055;-77
2022/08/30 13:28:08;;;;;;;4.47;2.33;;;25.40;99.90;;;;;;1935031;73;21110;-80
2022/08/30 13:31:00;;;;;;;3.80;1.85;;;25.50;99.90;;;;;;1889873;75;21071;-77
2022/08/30 13:33:57;;;;;;;5.12;1.90;;;25.50;99.90;;;;;;1922529;73;21110;-75
2022/08/30 13:36:59;;;;;;;3.47;2.05;;;25.70;99.90;;;;;;1928392;73;21190;-76
2022/08/30 13:39:51;;;;;;;6.50;2.05;;;25.60;99.90;;;;;;1927132;73;21180;-75
2022/08/30 13:42:43;;;;;;;4.80;1.90;;;25.80;99.90;;;;;;1889680;75;21232;-75
2022/08/30 13:45:41;;;;;;;2.98;1.65;;;25.80;99.90;;;;;;1917985;73;21047;-75
2022/08/30 13:48:52;;;;;;;19.12;15.70;;;25.90;99.90;;;;;;1929184;73;21098;-86
2022/08/30 13:51:43;;;;;;;3.08;1.30;;;26.00;99.90;;;;;;1927549;73;21083;-75
2022/08/30 13:54:36;;;;;;;2.98;1.50;;;25.60;99.90;;;;;;1913731;73;21120;-76
2022/08/30 14:00:11;;;;;;;4.47;1.50;;;25.90;99.90;;;;;;1933145;72;22692;-75
2022/08/30 14:06:01;;;;;;;1.98;1.25;;;26.80;99.90;;;;;;1935450;72;22303;-76
2022/08/30 14:09:05;;;;;;;1.20;0.80;;;27.20;99.90;;;;;;1909970;75;21058;-79
2022/08/30 14:12:09;;;;;;;2.35;0.98;;;27.90;99.90;;;;;;1886255;75;21167;-82
2022/08/30 14:15:01;;;;;;;2.77;1.37;;;29.30;99.90;;;;;;1911720;75;21114;-82
2022/08/30 14:20:41;;;;;;;4.12;3.15;;;29.50;99.90;;;;;;1939183;72;22227;-82
2022/08/30 14:23:58;;;;;;;2.47;1.15;;;28.50;99.90;;;;;;1893303;75;21062;-82
2022/08/30 14:26:51;;;;;;;2.67;1.55;;;28.00;99.90;;;;;;1888714;75;21612;-80
2022/08/30 14:29:45;;;;;;;1.75;1.12;;;27.60;99.90;;;;;;1904189;75;21118;-80
2022/08/30 14:32:38;;;;;;;2.87;1.47;;;27.30;99.90;;;;;;1899977;75;21109;-82
2022/08/30 14:35:30;;;;;;;3.50;1.50;;;27.10;99.90;;;;;;1892533;75;21095;-75
2022/08/30 14:38:24;;;;;;;3.58;1.40;;;26.90;99.90;;;;;;1901880;75;21097;-79
2022/08/30 14:43:57;;;;;;;4.75;1.50;;;26.50;99.90;;;;;;1934443;72;22199;-78
2022/08/30 14:47:06;;;;;;;3.55;1.62;;;26.50;99.90;;;;;;1905535;75;21119;-74
2022/08/30 14:50:00;;;;;;;4.42;2.15;;;26.20;99.90;;;;;;1907482;74;21143;-82
2022/08/30 14:52:52;;;;;;;3.02;1.55;;;25.90;99.90;;;;;;1904413;75;21133;-80
2022/08/30 14:58:22;;;;;;;2.87;1.42;;;25.50;99.90;;;;;;1942875;72;22248;-77
2022/08/30 15:01:14;;;;;;;1.62;1.27;;;25.30;99.90;;;;;;1899266;75;21114;-79
2022/08/30 15:04:07;;;;;;;2.77;1.40;;;25.20;99.90;;;;;;1902600;75;21039;-79
2022/08/30 15:07:05;;;;;;;1.75;1.10;;;25.10;99.90;;;;;;1906882;75;21148;-75
2022/08/30 15:12:40;;;;;;;1.82;1.30;;;25.10;99.90;;;;;;1943226;72;22265;-75
2022/08/30 15:15:31;;;;;;;1.62;1.40;;;25.10;99.90;;;;;;1891855;75;21206;-75
2022/08/30 15:18:23;;;;;;;6.60;2.22;;;24.90;99.90;;;;;;1885972;75;21148;-79
2022/08/30 15:21:14;;;;;;;12.05;5.15;;;24.80;99.90;;;;;;1889791;75;21086;-74
2022/08/30 15:27:12;;;;;;;8.43;3.58;;;24.00;99.90;;;;;;1887745;75;21043;-75
2022/08/30 15:30:05;;;;;;;6.62;2.45;;;23.60;99.90;;;;;;1886635;75;21146;-75
2022/08/30 15:32:57;;;;;;;5.92;1.95;;;23.30;99.90;;;;;;1897307;75;21153;-76
2022/08/30 15:35:56;;;;;;;3.12;2.20;;;23.30;99.90;;;;;;1893981;75;21054;-80
2022/08/30 15:38:47;;;;;;;4.62;3.25;;;23.10;99.90;;;;;;1894784;75;21055;-78
2022/08/30 15:41:40;;;;;;;4.65;2.00;;;23.00;99.90;;;;;;1902278;75;21121;-81
2022/08/30 15:44:32;;;;;;;4.62;1.90;;;22.90;99.90;;;;;;1900239;75;21055;-75
2022/08/30 15:50:16;;;;;;;4.28;2.10;;;22.80;99.90;;;;;;1937098;72;22146;-80
2022/08/30 15:53:16;;;;;;;3.62;2.20;;;22.90;99.90;;;;;;1898967;75;21507;-81
2022/08/30 15:56:11;;;;;;;3.67;2.25;;;22.80;99.90;;;;;;1903047;75;21115;-81
2022/08/30 16:01:43;;;;;;;3.75;2.55;;;22.90;99.90;;;;;;1920296;72;22281;-81
2022/08/30 16:04:35;;;;;;;4.33;2.45;;;22.90;99.90;;;;;;1933275;73;21203;-81
2022/08/30 16:10:07;;;;;;;3.27;1.92;;;23.00;99.90;;;;;;1936039;72;22137;-78
2022/08/30 16:15:39;;;;;;;2.98;1.75;;;22.90;99.90;;;;;;1926002;72;22164;-82
2022/08/30 16:18:30;;;;;;;3.52;1.65;;;23.00;99.90;;;;;;1903668;74;21059;-81
2022/08/30 16:21:31;;;;;;;2.72;1.92;;;22.90;99.90;;;;;;1900334;74;21518;-78
2022/08/30 16:24:42;;;;;;;2.95;2.10;;;22.70;99.90;;;;;;1884936;75;21163;-83
2022/08/30 16:30:21;;;;;;;2.85;1.92;;;22.70;99.90;;;;;;1951073;72;22117;-76
2022/08/30 16:35:52;;;;;;;4.87;1.90;;;22.70;99.90;;;;;;1931983;72;22546;-76
2022/08/30 16:41:23;;;;;;;4.65;2.33;;;22.80;99.90;;;;;;1938361;72;22137;-74
2022/08/30 16:44:23;;;;;;;2.72;2.15;;;22.80;99.90;;;;;;1908185;75;21083;-74
2022/08/30 16:50:03;;;;;;;2.70;1.90;;;22.60;99.90;;;;;;1949665;72;22102;-74
2022/08/30 16:52:59;;;;;;;4.50;2.52;;;22.60;99.90;;;;;;1932731;73;21062;-81
2022/08/30 16:55:52;;;;;;;4.93;2.80;;;22.50;99.90;;;;;;1932062;73;21490;-76
2022/08/30 16:58:45;;;;;;;5.15;2.75;;;22.50;99.90;;;;;;1923198;73;21117;-80
2022/08/30 17:01:37;;;;;;;3.45;2.85;;;22.60;99.90;;;;;;1917812;73;21096;-79
2022/08/30 17:04:30;;;;;;;3.62;2.98;;;22.60;99.90;;;;;;1926300;73;21120;-78
2022/08/30 17:07:21;;;;;;;3.77;2.65;;;22.60;99.90;;;;;;1929568;73;21130;-79
2022/08/30 17:12:52;;;;;;;5.67;3.37;;;22.60;99.90;;;;;;1936805;72;22622;-74
2022/08/30 17:15:46;;;;;;;3.10;2.50;;;22.60;99.90;;;;;;1888741;75;21207;-78
2022/08/30 17:21:17;;;;;;;2.60;2.40;;;22.30;99.90;;;;;;1950156;72;22197;-79
2022/08/30 17:26:49;;;;;;;2.90;2.20;;;22.30;99.90;;;;;;1930000;72;22150;-78
2022/08/30 17:29:42;;;;;;;2.33;1.90;;;22.20;99.90;;;;;;1888132;75;21128;-76
2022/08/30 17:35:13;;;;;;;3.70;2.10;;;22.10;99.90;;;;;;1942506;72;22150;-77
2022/08/30 17:40:45;;;;;;;3.50;2.50;;;22.00;99.90;;;;;;1930511;72;22263;-77
2022/08/30 17:43:40;;;;;;;5.30;3.20;;;22.00;99.90;;;;;;1908474;74;21048;-77
2022/08/30 17:46:31;;;;;;;8.68;6.30;;;22.00;99.90;;;;;;1914706;75;21139;-77
2022/08/30 17:52:05;;;;;;;5.47;3.67;;;22.10;99.90;;;;;;1953715;72;22184;-78
2022/08/30 17:55:04;;;;;;;6.12;3.22;;;22.20;99.90;;;;;;1918932;73;21193;-82
2022/08/30 17:57:56;;;;;;;2.98;2.67;;;22.30;99.90;;;;;;1928110;73;21102;-77
2022/08/30 18:01:06;;;;;;;4.08;3.12;;;22.10;99.90;;;;;;1922019;73;21173;-80
2022/08/30 18:04:09;;;;;;;4.03;2.55;;;22.10;99.90;;;;;;1927516;73;21099;-83
2022/08/30 18:09:40;;;;;;;5.25;3.50;;;22.00;99.90;;;;;;1934139;72;22647;-77
2022/08/30 18:12:32;;;;;;;4.20;3.37;;;21.80;99.90;;;;;;1906281;75;21181;-77
2022/08/30 18:15:27;;;;;;;5.97;3.58;;;21.90;99.90;;;;;;1904066;75;21062;-77
2022/08/30 18:18:19;;;;;;;4.67;3.35;;;22.00;99.90;;;;;;1910710;75;21050;-76
2022/08/30 18:21:22;;;;;;;6.37;3.50;;;22.00;99.90;;;;;;1896431;75;21051;-76
2022/08/30 18:24:28;;;;;;;4.10;3.42;;;21.90;99.90;;;;;;1885563;75;21068;-76
2022/08/30 18:27:27;;;;;;;5.30;3.58;;;21.80;99.90;;;;;;1903844;75;21058;-76
2022/08/30 18:30:19;;;;;;;5.28;3.10;;;21.80;99.90;;;;;;1884413;76;21047;-76
2022/08/30 18:33:10;;;;;;;5.75;3.10;;;21.80;99.90;;;;;;1896345;75;21101;-76
2022/08/30 18:36:03;;;;;;;4.45;3.37;;;21.70;99.90;;;;;;1894279;75;21545;-76
2022/08/30 18:38:54;;;;;;;4.40;3.40;;;21.70;99.90;;;;;;1893800;75;21106;-76
2022/08/30 18:44:28;;;;;;;4.62;2.60;;;21.80;99.90;;;;;;1935475;72;22208;-75